Time;durP1;ratioP1;P1;durP2;ratioP2;P2;SDS_P1;SDS_P2;PMS_P1;PMS_P2;Temp;Humidity;BMP_temperature;BMP_pressure;BME280_temperature;BME280_humidity;BME280_pressure;Samples;Min_cycle;Max_cycle;Signal;HPM_P1;HPM_P2
2023/03/07 00:00:04;;;;;;;37.50;25.75;;;20.80;99.90;;;;;;5034216;28;20367;-50
2023/03/07 00:02:30;;;;;;;33.80;24.45;;;20.80;99.90;;;;;;5032479;28;20041;-51
2023/03/07 00:04:56;;;;;;;39.15;26.67;;;20.80;99.90;;;;;;5033616;28;20534;-50
2023/03/07 00:07:22;;;;;;;40.25;26.88;;;20.80;99.90;;;;;;5032777;28;20481;-50
2023/03/07 00:09:47;;;;;;;36.47;25.85;;;20.80;99.90;;;;;;5032455;28;20021;-51
2023/03/07 00:12:13;;;;;;;43.92;27.30;;;20.80;99.90;;;;;;5033692;28;20018;-51
2023/03/07 00:14:39;;;;;;;38.42;25.50;;;20.80;99.90;;;;;;5033717;28;20536;-51
2023/03/07 00:17:04;;;;;;;38.42;27.35;;;20.80;99.90;;;;;;5033749;28;20061;-51
2023/03/07 00:19:30;;;;;;;37.10;26.30;;;20.80;99.90;;;;;;5033631;28;20061;-51
2023/03/07 00:21:56;;;;;;;35.80;25.13;;;20.80;99.90;;;;;;5033529;28;20033;-51
2023/03/07 00:24:22;;;;;;;38.78;25.50;;;20.80;99.90;;;;;;5033462;28;20030;-51
2023/03/07 00:26:48;;;;;;;41.00;25.58;;;20.70;99.90;;;;;;5024975;28;20338;-49
2023/03/07 00:29:14;;;;;;;36.70;25.23;;;20.80;99.90;;;;;;5028310;28;20068;-49
2023/03/07 00:31:39;;;;;;;34.28;23.92;;;20.70;99.90;;;;;;5030059;28;20466;-50
2023/03/07 00:34:05;;;;;;;36.78;25.00;;;20.80;99.90;;;;;;5031467;28;20060;-50
2023/03/07 00:36:31;;;;;;;37.83;24.73;;;20.80;99.90;;;;;;5030173;28;20428;-51
2023/03/07 00:38:57;;;;;;;34.38;24.52;;;20.70;99.90;;;;;;5031641;28;20053;-51
2023/03/07 00:41:25;;;;;;;33.63;24.33;;;20.70;99.90;;;;;;5030842;28;20034;-50
2023/03/07 00:43:52;;;;;;;38.58;23.08;;;20.80;99.90;;;;;;5026048;28;20024;-50
2023/03/07 00:46:20;;;;;;;34.05;23.08;;;20.80;99.90;;;;;;5030339;28;20033;-50
2023/03/07 00:48:46;;;;;;;35.38;23.27;;;20.80;99.90;;;;;;5030809;28;20060;-50
2023/03/07 00:51:15;;;;;;;36.33;23.80;;;20.80;99.90;;;;;;5030849;28;20051;-50
2023/03/07 00:53:41;;;;;;;34.53;22.95;;;20.70;99.90;;;;;;5030532;28;20022;-50
2023/03/07 00:56:11;;;;;;;34.72;23.33;;;20.70;99.90;;;;;;5030338;28;20057;-51
2023/03/07 00:58:37;;;;;;;35.40;23.60;;;20.80;99.90;;;;;;5031269;28;20021;-51
2023/03/07 01:01:04;;;;;;;35.05;23.45;;;20.70;99.90;;;;;;5011291;23;20141;-50
2023/03/07 01:03:31;;;;;;;33.25;21.65;;;20.70;99.90;;;;;;4991482;28;20478;-49
2023/03/07 01:06:00;;;;;;;28.65;21.08;;;20.80;99.90;;;;;;4989701;28;20109;-50
2023/03/07 01:16:21;;;;;;;32.38;21.15;;;20.70;99.90;;;;;;5521218;23;20460;-48
2023/03/07 01:18:55;;;;;;;31.00;20.75;;;20.80;99.90;;;;;;4917865;29;20019;-48
2023/03/07 01:21:23;;;;;;;29.20;20.52;;;20.70;99.90;;;;;;4930153;29;20103;-48
2023/03/07 01:23:48;;;;;;;33.88;20.75;;;20.80;99.90;;;;;;4922843;29;20027;-48
2023/03/07 01:26:17;;;;;;;32.58;21.45;;;20.80;99.90;;;;;;4922347;29;20040;-48
2023/03/07 01:28:44;;;;;;;31.23;20.38;;;20.80;99.90;;;;;;4926930;29;20091;-49
2023/03/07 01:31:10;;;;;;;30.88;19.88;;;20.80;99.90;;;;;;4918388;29;20038;-48
2023/03/07 01:33:36;;;;;;;27.42;19.38;;;20.80;99.90;;;;;;4927637;29;20055;-48
2023/03/07 01:36:02;;;;;;;29.88;19.83;;;20.80;99.90;;;;;;4925298;29;20129;-48
2023/03/07 01:38:32;;;;;;;26.38;18.58;;;20.80;99.90;;;;;;4919075;29;20115;-47
2023/03/07 01:41:00;;;;;;;29.30;20.52;;;20.80;99.90;;;;;;4915454;29;20051;-47
2023/03/07 01:43:29;;;;;;;28.65;18.85;;;20.80;99.90;;;;;;4915584;29;20040;-47
2023/03/07 01:46:01;;;;;;;28.83;18.80;;;20.80;99.90;;;;;;4925316;29;20070;-47
2023/03/07 01:48:27;;;;;;;30.50;18.83;;;20.80;99.90;;;;;;4931243;29;20063;-47
2023/03/07 01:50:53;;;;;;;27.50;17.88;;;20.70;99.90;;;;;;4929071;29;20060;-48
2023/03/07 01:53:20;;;;;;;25.65;16.90;;;20.80;99.90;;;;;;4917267;29;20483;-48
2023/03/07 01:55:46;;;;;;;25.10;17.23;;;20.70;99.90;;;;;;4930675;29;20023;-48
2023/03/07 01:58:14;;;;;;;26.48;18.48;;;20.80;99.90;;;;;;4931899;29;20504;-49
2023/03/07 02:00:40;;;;;;;;;;;20.80;99.90;;;;;;4931553;29;20032;-48
2023/03/07 02:03:35;;;;;;;25.63;17.93;;;20.80;99.90;;;;;;4916941;29;19938;-48
2023/03/07 02:06:07;;;;;;;25.30;16.95;;;20.70;99.90;;;;;;4913997;29;20453;-48
2023/03/07 02:08:34;;;;;;;30.50;17.70;;;20.80;99.90;;;;;;4915369;29;20024;-48
2023/03/07 02:11:00;;;;;;;25.52;17.05;;;20.70;99.90;;;;;;4921512;29;20020;-48
2023/03/07 02:13:26;;;;;;;23.98;17.13;;;20.70;99.90;;;;;;4929912;29;20103;-47
2023/03/07 02:15:52;;;;;;;24.00;16.77;;;20.70;99.90;;;;;;4915434;29;20476;-47
2023/03/07 02:18:23;;;;;;;25.30;16.83;;;20.70;99.90;;;;;;4929070;29;20559;-48
2023/03/07 02:21:14;;;;;;;23.15;15.48;;;20.80;99.90;;;;;;4921117;29;20016;-48
2023/03/07 02:24:00;;;;;;;22.95;15.82;;;20.70;99.90;;;;;;4929753;29;20036;-48
2023/03/07 02:26:45;;;;;;;24.00;15.77;;;20.70;99.90;;;;;;4914610;29;20027;-48
2023/03/07 02:29:11;;;;;;;22.45;15.38;;;20.80;99.90;;;;;;4931490;29;20380;-48
2023/03/07 02:31:37;;;;;;;22.20;16.17;;;20.80;99.90;;;;;;4925186;29;20381;-48
2023/03/07 02:34:15;;;;;;;20.63;15.32;;;20.80;99.90;;;;;;4924169;29;20024;-48
2023/03/07 02:36:41;;;;;;;22.25;15.00;;;20.80;99.90;;;;;;4934743;29;20032;-48
2023/03/07 02:39:08;;;;;;;22.15;14.45;;;20.70;99.90;;;;;;4934030;29;20384;-48
2023/03/07 02:41:36;;;;;;;20.77;15.02;;;20.80;99.90;;;;;;4930398;29;20582;-48
2023/03/07 02:44:02;;;;;;;22.73;14.60;;;20.70;99.90;;;;;;4932818;29;20046;-48
2023/03/07 02:46:28;;;;;;;22.02;14.68;;;20.80;99.90;;;;;;4918307;29;20028;-48
2023/03/07 02:48:53;;;;;;;21.30;15.40;;;20.80;99.90;;;;;;4919084;29;20036;-48
2023/03/07 02:51:19;;;;;;;19.65;14.45;;;20.80;99.90;;;;;;4933336;29;20105;-48
2023/03/07 02:53:45;;;;;;;21.77;14.55;;;20.70;99.90;;;;;;4929130;29;20056;-48
2023/03/07 02:56:11;;;;;;;20.13;13.65;;;20.80;99.90;;;;;;4936819;29;20516;-48
2023/03/07 02:58:37;;;;;;;20.45;13.55;;;20.70;99.90;;;;;;4938225;29;20078;-48
2023/03/07 03:01:03;;;;;;;18.80;13.65;;;20.70;99.90;;;;;;4938080;29;20023;-48
2023/03/07 03:03:29;;;;;;;19.73;13.27;;;20.70;99.90;;;;;;4937894;29;20492;-48
2023/03/07 03:05:54;;;;;;;20.10;13.68;;;20.70;99.90;;;;;;4929843;29;20111;-48
2023/03/07 03:08:20;;;;;;;17.95;13.55;;;20.70;99.90;;;;;;4919050;29;20099;-47
2023/03/07 03:10:54;;;;;;;19.60;13.55;;;20.70;99.90;;;;;;4918822;29;20111;-48
2023/03/07 03:13:20;;;;;;;22.92;13.43;;;20.70;99.90;;;;;;4918898;29;20499;-48
2023/03/07 03:15:46;;;;;;;19.85;12.85;;;20.70;99.90;;;;;;4938878;23;20051;-49
2023/03/07 03:18:12;;;;;;;19.10;12.65;;;20.70;99.90;;;;;;4957060;28;20042;-48
2023/03/07 03:20:41;;;;;;;17.70;12.57;;;20.70;99.90;;;;;;4956993;28;20379;-51
2023/03/07 03:23:07;;;;;;;18.45;12.55;;;20.70;99.90;;;;;;4957031;28;20044;-51
2023/03/07 03:25:33;;;;;;;18.63;12.30;;;20.70;99.90;;;;;;4956965;28;20031;-51
2023/03/07 03:27:59;;;;;;;19.25;13.20;;;20.70;99.90;;;;;;4956788;28;20027;-51
2023/03/07 03:30:27;;;;;;;19.30;11.77;;;20.70;99.90;;;;;;4957148;28;20034;-51
2023/03/07 03:32:52;;;;;;;16.77;11.98;;;20.60;99.90;;;;;;4956768;28;20038;-51
2023/03/07 03:35:18;;;;;;;17.52;11.85;;;20.60;99.90;;;;;;4956629;28;20028;-51
2023/03/07 03:37:44;;;;;;;17.30;11.80;;;20.60;99.90;;;;;;4956543;28;20046;-51
2023/03/07 03:40:13;;;;;;;17.00;11.23;;;20.60;99.90;;;;;;4936894;28;20035;-51
2023/03/07 03:42:42;;;;;;;17.63;12.48;;;20.60;99.90;;;;;;4935584;29;20415;-52
2023/03/07 03:45:10;;;;;;;17.35;12.10;;;20.60;99.90;;;;;;4935481;29;20030;-49
2023/03/07 03:47:37;;;;;;;19.13;11.13;;;20.60;99.90;;;;;;4936825;29;20023;-49
2023/03/07 03:50:03;;;;;;;17.02;12.05;;;20.60;99.90;;;;;;4936809;29;20059;-51
2023/03/07 03:52:29;;;;;;;17.83;11.75;;;20.60;99.90;;;;;;4937377;29;20034;-51
2023/03/07 03:54:54;;;;;;;18.77;12.18;;;20.60;99.90;;;;;;4937207;29;20028;-52
2023/03/07 03:57:20;;;;;;;17.15;12.30;;;20.60;99.90;;;;;;4937064;29;20440;-52
2023/03/07 03:59:46;;;;;;;17.30;12.10;;;20.60;99.90;;;;;;4937164;29;20038;-51
2023/03/07 04:02:12;;;;;;;17.33;11.23;;;20.60;99.90;;;;;;4936996;29;20396;-52
2023/03/07 04:04:38;;;;;;;17.20;12.32;;;20.50;99.90;;;;;;4937086;29;20745;-52
2023/03/07 04:07:04;;;;;;;17.67;11.48;;;20.50;99.90;;;;;;4937104;29;20035;-51
2023/03/07 04:09:30;;;;;;;18.50;11.10;;;20.50;99.90;;;;;;4937168;29;20020;-52
2023/03/07 04:11:56;;;;;;;15.05;10.15;;;20.50;99.90;;;;;;4937041;29;20035;-52
2023/03/07 04:14:22;;;;;;;19.48;11.82;;;20.50;99.90;;;;;;4936794;29;20028;-52
2023/03/07 04:16:48;;;;;;;14.75;10.88;;;20.50;99.90;;;;;;4961168;23;20075;-49
2023/03/07 04:19:14;;;;;;;15.95;10.73;;;20.50;99.90;;;;;;4955900;28;20031;-49
2023/03/07 04:21:40;;;;;;;14.88;9.73;;;20.50;99.90;;;;;;4955812;28;20036;-49
2023/03/07 04:24:07;;;;;;;14.60;9.93;;;20.50;99.90;;;;;;4955775;28;20506;-49
2023/03/07 04:26:34;;;;;;;16.08;10.55;;;20.50;99.90;;;;;;4955672;28;20102;-49
2023/03/07 04:29:00;;;;;;;18.27;10.37;;;20.50;99.90;;;;;;4955994;28;20023;-49
2023/03/07 04:31:27;;;;;;;14.73;9.98;;;20.50;99.90;;;;;;4954381;28;20024;-49
2023/03/07 04:33:55;;;;;;;15.52;10.82;;;20.50;99.90;;;;;;4955726;28;20388;-49
2023/03/07 04:36:21;;;;;;;;;;;20.50;99.90;;;;;;4956115;28;20348;-51
2023/03/07 04:38:48;;;;;;;14.32;9.60;;;20.50;99.90;;;;;;4955531;28;19950;-50
2023/03/07 04:41:16;;;;;;;14.95;10.95;;;20.50;99.90;;;;;;4955397;28;20027;-50
2023/03/07 04:43:42;;;;;;;14.15;9.95;;;20.50;99.90;;;;;;4955559;28;20027;-48
2023/03/07 04:46:08;;;;;;;14.80;9.38;;;20.50;99.90;;;;;;4955490;28;20050;-49
2023/03/07 04:48:34;;;;;;;12.85;9.32;;;20.50;99.90;;;;;;4955500;28;20028;-49
2023/03/07 04:51:00;;;;;;;15.60;10.07;;;20.40;99.90;;;;;;4955534;28;20023;-49
2023/03/07 04:53:26;;;;;;;14.23;9.43;;;20.50;99.90;;;;;;4954926;28;20046;-49
2023/03/07 04:56:07;;;;;;;12.27;8.80;;;20.40;99.90;;;;;;4955381;28;20082;-48
2023/03/07 04:58:33;;;;;;;11.98;8.77;;;20.40;99.90;;;;;;4955387;28;20026;-49
2023/03/07 05:01:00;;;;;;;14.15;9.18;;;20.40;99.90;;;;;;4955371;28;20051;-48
2023/03/07 05:03:26;;;;;;;16.77;9.88;;;20.40;99.90;;;;;;4955065;28;20046;-48
2023/03/07 05:05:52;;;;;;;11.98;8.68;;;20.40;99.90;;;;;;4953871;29;20031;-48
2023/03/07 05:08:19;;;;;;;12.85;8.80;;;20.40;99.90;;;;;;4954913;28;20034;-48
2023/03/07 05:10:45;;;;;;;11.60;8.40;;;20.40;99.90;;;;;;4954982;28;20020;-48
2023/03/07 05:13:11;;;;;;;11.23;8.50;;;20.40;99.90;;;;;;4954917;28;20028;-48
2023/03/07 05:15:36;;;;;;;13.98;8.77;;;20.40;99.90;;;;;;4954772;28;20059;-48
2023/03/07 05:18:03;;;;;;;10.40;7.90;;;20.40;99.90;;;;;;4954849;28;20027;-48
2023/03/07 05:20:29;;;;;;;12.57;9.05;;;20.40;99.90;;;;;;4954848;28;20035;-48
2023/03/07 05:22:55;;;;;;;10.80;8.18;;;20.40;99.90;;;;;;4954779;28;20447;-48
2023/03/07 05:25:21;;;;;;;11.30;8.48;;;20.40;99.90;;;;;;4954717;28;20070;-47
2023/03/07 05:27:47;;;;;;;13.02;8.95;;;20.30;99.90;;;;;;4954712;28;20039;-47
2023/03/07 05:30:15;;;;;;;11.20;8.48;;;20.40;99.90;;;;;;4954653;28;20034;-47
2023/03/07 05:32:41;;;;;;;12.88;8.50;;;20.40;99.90;;;;;;4954587;28;20035;-47
2023/03/07 05:35:09;;;;;;;10.38;7.80;;;20.40;99.90;;;;;;4953236;29;20024;-47
2023/03/07 05:37:35;;;;;;;12.68;8.65;;;20.30;99.90;;;;;;4954701;28;20023;-48
2023/03/07 05:40:01;;;;;;;11.32;7.68;;;20.30;99.90;;;;;;4954585;28;20138;-47
2023/03/07 05:42:26;;;;;;;11.65;7.32;;;20.30;99.90;;;;;;4954457;28;20122;-47
2023/03/07 05:44:52;;;;;;;13.05;8.30;;;20.30;99.90;;;;;;4953154;28;20027;-47
2023/03/07 05:47:18;;;;;;;12.65;8.98;;;20.30;99.90;;;;;;4953204;29;20028;-47
2023/03/07 05:49:44;;;;;;;11.68;7.25;;;20.30;99.90;;;;;;4952993;29;20031;-47
2023/03/07 05:52:09;;;;;;;11.88;8.13;;;20.30;99.90;;;;;;4954448;28;20378;-48
2023/03/07 05:54:35;;;;;;;10.65;7.55;;;20.30;99.90;;;;;;4954544;28;20019;-48
2023/03/07 05:57:01;;;;;;;9.93;7.38;;;20.30;99.90;;;;;;4953138;28;20123;-48
2023/03/07 05:59:27;;;;;;;11.15;7.38;;;20.30;99.90;;;;;;4953037;29;20036;-47
2023/03/07 06:01:52;;;;;;;10.98;6.95;;;20.40;99.90;;;;;;4952094;28;20075;-48
2023/03/07 06:04:18;;;;;;;10.68;7.57;;;20.30;99.90;;;;;;4952869;28;20034;-47
2023/03/07 06:06:44;;;;;;;10.88;7.40;;;20.30;99.90;;;;;;4953751;28;20027;-47
2023/03/07 06:09:10;;;;;;;11.43;7.32;;;20.30;99.90;;;;;;4954153;28;20024;-48
2023/03/07 06:11:35;;;;;;;12.02;7.97;;;20.30;99.90;;;;;;4954295;28;20031;-47
2023/03/07 06:14:01;;;;;;;11.07;7.75;;;20.30;99.90;;;;;;4954024;28;20475;-48
2023/03/07 06:16:27;;;;;;;11.43;7.82;;;20.30;99.90;;;;;;4952955;28;20105;-47
2023/03/07 06:18:52;;;;;;;12.20;7.30;;;20.30;99.90;;;;;;4953965;28;20039;-47
2023/03/07 06:21:18;;;;;;;9.25;6.95;;;20.30;99.90;;;;;;4952714;29;20395;-47
2023/03/07 06:23:45;;;;;;;12.50;6.95;;;20.30;99.90;;;;;;4952817;29;20448;-47
2023/03/07 06:26:11;;;;;;;9.07;6.72;;;20.30;99.90;;;;;;4953961;28;20535;-47
2023/03/07 06:28:41;;;;;;;12.25;7.47;;;20.30;99.90;;;;;;4939309;28;20037;-47
2023/03/07 06:31:11;;;;;;;9.43;6.70;;;20.30;99.90;;;;;;4933577;29;20028;-47
2023/03/07 06:33:37;;;;;;;10.57;7.65;;;20.30;99.90;;;;;;4933371;29;20024;-48
2023/03/07 06:36:05;;;;;;;10.57;6.68;;;20.30;99.90;;;;;;4934112;29;20042;-47
2023/03/07 06:38:31;;;;;;;11.77;7.43;;;20.30;99.90;;;;;;4934645;29;20024;-47
2023/03/07 06:40:57;;;;;;;10.05;6.88;;;20.30;99.90;;;;;;4934714;29;20035;-48
2023/03/07 06:43:22;;;;;;;9.27;7.00;;;20.30;99.90;;;;;;4934813;29;20094;-47
2023/03/07 06:45:48;;;;;;;12.23;6.53;;;20.30;99.90;;;;;;4934678;29;20042;-47
2023/03/07 06:48:14;;;;;;;7.93;6.32;;;20.30;99.90;;;;;;4934499;29;20127;-47
2023/03/07 06:50:40;;;;;;;9.95;6.70;;;20.30;99.90;;;;;;4934785;29;20527;-47
2023/03/07 06:53:05;;;;;;;11.00;6.90;;;20.30;99.90;;;;;;4949502;29;20365;-48
2023/03/07 06:55:31;;;;;;;9.18;6.78;;;20.30;99.90;;;;;;4934548;29;20027;-47
2023/03/07 06:57:57;;;;;;;9.95;6.07;;;20.30;99.90;;;;;;4933791;29;20383;-47
2023/03/07 07:00:22;;;;;;;9.88;6.70;;;20.20;99.90;;;;;;4934526;29;20536;-47
2023/03/07 07:02:48;;;;;;;8.50;6.00;;;20.30;99.90;;;;;;4934506;29;20055;-47
2023/03/07 07:05:14;;;;;;;8.57;6.13;;;20.30;99.90;;;;;;4949234;29;20055;-49
2023/03/07 07:07:40;;;;;;;9.27;6.30;;;20.30;99.90;;;;;;4934632;29;20059;-47
2023/03/07 07:10:06;;;;;;;9.00;6.55;;;20.20;99.90;;;;;;4934677;29;20027;-47
2023/03/07 07:12:32;;;;;;;9.02;6.07;;;20.20;99.90;;;;;;4934393;29;20024;-47
2023/03/07 07:15:01;;;;;;;10.38;6.57;;;20.30;99.90;;;;;;4934314;29;20027;-47
2023/03/07 07:17:28;;;;;;;8.75;5.95;;;20.20;99.90;;;;;;4935448;29;20052;-48
2023/03/07 07:19:53;;;;;;;8.73;6.07;;;20.30;99.90;;;;;;4937824;29;20035;-47
2023/03/07 07:22:19;;;;;;;8.98;6.00;;;20.20;99.90;;;;;;4937734;29;20031;-47
2023/03/07 07:24:45;;;;;;;9.60;5.82;;;20.30;99.90;;;;;;4952365;29;20047;-48
2023/03/07 07:27:11;;;;;;;9.60;6.25;;;20.20;99.90;;;;;;4952386;28;20079;-48
2023/03/07 07:29:37;;;;;;;8.75;5.95;;;20.30;99.90;;;;;;4937807;29;20031;-48
2023/03/07 07:32:02;;;;;;;10.35;6.68;;;20.30;99.90;;;;;;4937623;29;20039;-48
2023/03/07 07:34:28;;;;;;;9.30;6.05;;;20.30;99.90;;;;;;4937507;29;20116;-49
2023/03/07 07:36:55;;;;;;;10.52;6.30;;;20.30;99.90;;;;;;4937417;29;20032;-48
2023/03/07 07:39:22;;;;;;;9.52;6.30;;;20.30;99.90;;;;;;4952162;29;20027;-48
2023/03/07 07:41:47;;;;;;;7.63;5.55;;;20.30;99.90;;;;;;4937315;29;20039;-48
2023/03/07 07:44:13;;;;;;;9.43;6.15;;;20.30;99.90;;;;;;4937337;29;20459;-48
2023/03/07 07:46:39;;;;;;;8.95;5.70;;;20.30;99.90;;;;;;4937774;29;20035;-48
2023/03/07 07:49:05;;;;;;;9.88;6.43;;;20.30;99.90;;;;;;4937453;29;20417;-48
2023/03/07 07:51:32;;;;;;;10.40;5.75;;;20.30;99.90;;;;;;4937197;29;20099;-48
2023/03/07 07:53:58;;;;;;;8.32;5.57;;;20.20;99.90;;;;;;4937062;29;20059;-47
2023/03/07 07:56:24;;;;;;;9.13;5.40;;;20.30;99.90;;;;;;4937174;29;20456;-48
2023/03/07 07:58:50;;;;;;;9.25;6.13;;;20.30;99.90;;;;;;4937159;29;20045;-48
2023/03/07 08:01:22;;;;;;;9.40;6.07;;;20.20;99.90;;;;;;4937217;29;20031;-48
2023/03/07 08:03:48;;;;;;;10.93;6.13;;;20.20;99.90;;;;;;4936968;29;20016;-48
2023/03/07 08:06:19;;;;;;;8.75;5.78;;;20.30;99.90;;;;;;4936864;28;20035;-48
2023/03/07 08:08:44;;;;;;;9.40;5.93;;;20.20;99.90;;;;;;4936942;29;20023;-48
2023/03/07 08:11:10;;;;;;;10.57;5.60;;;20.30;99.90;;;;;;4937193;29;20027;-48
2023/03/07 08:13:36;;;;;;;8.43;5.95;;;20.20;99.90;;;;;;4951642;29;20027;-48
2023/03/07 08:16:22;;;;;;;8.07;5.50;;;20.20;99.90;;;;;;4936654;29;20488;-48
2023/03/07 08:18:50;;;;;;;9.77;5.85;;;20.30;99.90;;;;;;4936719;29;20127;-48
2023/03/07 08:21:16;;;;;;;8.93;5.35;;;20.30;99.90;;;;;;4951246;29;20117;-48
2023/03/07 08:23:42;;;;;;;8.43;5.82;;;20.30;99.90;;;;;;4936749;29;20112;-48
2023/03/07 08:26:09;;;;;;;8.25;5.50;;;20.30;99.90;;;;;;4936599;29;20034;-48
2023/03/07 08:28:36;;;;;;;8.10;5.40;;;20.20;99.90;;;;;;4936111;29;20164;-48
2023/03/07 08:31:19;;;;;;;8.02;5.80;;;20.30;99.90;;;;;;4936589;29;20020;-48
2023/03/07 08:33:46;;;;;;;9.60;5.60;;;20.30;99.90;;;;;;4936459;29;20039;-49
2023/03/07 08:36:13;;;;;;;6.97;5.22;;;20.30;99.90;;;;;;4936622;29;20020;-49
2023/03/07 08:38:38;;;;;;;7.80;5.53;;;20.30;99.90;;;;;;4936191;29;20103;-48
2023/03/07 08:41:06;;;;;;;12.27;6.30;;;20.30;99.90;;;;;;4936273;29;20087;-49
2023/03/07 08:43:35;;;;;;;7.13;5.15;;;20.30;99.90;;;;;;4950861;28;20040;-48
2023/03/07 08:46:01;;;;;;;6.63;5.93;;;20.30;99.90;;;;;;4936223;29;20499;-48
2023/03/07 08:48:27;;;;;;;8.90;5.43;;;20.30;99.90;;;;;;4950606;29;20032;-48
2023/03/07 08:50:53;;;;;;;7.43;4.70;;;20.30;99.90;;;;;;4936027;29;20051;-48
2023/03/07 08:53:19;;;;;;;9.77;5.63;;;20.30;99.90;;;;;;4935936;29;20035;-49
2023/03/07 08:55:46;;;;;;;10.45;5.90;;;20.30;99.90;;;;;;4936100;29;20110;-48
2023/03/07 08:58:12;;;;;;;8.52;5.70;;;20.30;99.90;;;;;;4934811;29;20019;-49
2023/03/07 09:00:38;;;;;;;8.45;5.65;;;20.30;99.90;;;;;;4950057;28;20091;-49
2023/03/07 09:03:05;;;;;;;8.45;5.85;;;20.30;99.90;;;;;;4934337;29;20067;-49
2023/03/07 09:05:34;;;;;;;8.83;5.30;;;20.30;99.90;;;;;;4934039;29;20528;-49
2023/03/07 09:08:00;;;;;;;8.52;5.20;;;20.30;99.90;;;;;;4935408;29;20039;-49
2023/03/07 09:10:26;;;;;;;8.25;5.30;;;20.30;99.90;;;;;;4933619;29;20023;-49
2023/03/07 09:12:54;;;;;;;11.20;6.32;;;20.30;99.90;;;;;;4950301;28;20074;-49
2023/03/07 09:15:20;;;;;;;8.05;5.60;;;20.30;99.90;;;;;;4935551;29;20032;-49
2023/03/07 09:17:46;;;;;;;10.13;6.22;;;20.30;99.90;;;;;;4935908;29;20097;-49
2023/03/07 09:20:12;;;;;;;8.88;6.15;;;20.30;99.90;;;;;;4935783;29;20050;-49
2023/03/07 09:22:38;;;;;;;7.75;5.43;;;20.30;99.90;;;;;;4935549;29;20040;-49
2023/03/07 09:25:05;;;;;;;11.23;5.68;;;20.30;99.90;;;;;;4935462;29;20039;-49
2023/03/07 09:27:31;;;;;;;9.18;5.95;;;20.30;99.90;;;;;;4935624;29;20040;-49
2023/03/07 09:29:56;;;;;;;9.63;6.38;;;20.30;99.90;;;;;;4935289;29;20384;-49
2023/03/07 09:32:22;;;;;;;8.65;6.15;;;20.30;99.90;;;;;;4935451;29;20100;-48
2023/03/07 09:34:48;;;;;;;7.88;5.38;;;20.30;99.90;;;;;;4935321;29;20020;-49
2023/03/07 09:37:14;;;;;;;10.27;6.35;;;20.30;99.90;;;;;;4935515;29;20380;-49
2023/03/07 09:39:39;;;;;;;9.15;5.82;;;20.40;99.90;;;;;;4934529;29;20028;-49
2023/03/07 09:42:44;;;;;;;8.63;6.10;;;20.40;99.90;;;;;;4935239;29;20038;-49
2023/03/07 09:45:46;;;;;;;8.18;5.57;;;20.40;99.90;;;;;;4932532;29;20051;-49
2023/03/07 09:48:20;;;;;;;10.73;5.60;;;20.40;99.90;;;;;;4927404;29;20119;-48
2023/03/07 09:50:56;;;;;;;10.98;5.97;;;20.40;99.90;;;;;;4935325;29;20437;-48
2023/03/07 09:53:45;;;;;;;9.93;5.85;;;20.40;99.90;;;;;;4935078;29;20054;-49
2023/03/07 09:56:34;;;;;;;8.80;6.00;;;20.40;99.90;;;;;;4935057;29;20108;-49
2023/03/07 09:59:37;;;;;;;9.07;5.90;;;20.40;99.90;;;;;;4934783;29;20024;-49
2023/03/07 10:02:37;;;;;;;7.88;5.53;;;20.40;99.90;;;;;;4934920;29;20092;-50
2023/03/07 10:05:30;;;;;;;6.80;4.95;;;20.40;99.90;;;;;;4934964;29;20421;-49
2023/03/07 10:07:57;;;;;;;8.68;5.60;;;20.40;99.90;;;;;;4934978;29;20071;-49
2023/03/07 10:10:33;;;;;;;8.13;5.70;;;20.40;99.90;;;;;;4934944;29;20472;-49
2023/03/07 10:13:54;;;;;;;9.18;6.00;;;20.50;99.90;;;;;;4934916;29;20026;-49
2023/03/07 10:16:34;;;;;;;7.60;5.60;;;20.50;99.90;;;;;;4911259;29;20047;-49
2023/03/07 10:19:12;;;;;;;11.15;5.80;;;20.50;99.90;;;;;;4934850;29;20038;-49
2023/03/07 10:21:46;;;;;;;9.82;5.40;;;20.50;99.90;;;;;;4934773;29;20102;-49
2023/03/07 10:24:19;;;;;;;9.70;5.85;;;20.50;99.90;;;;;;4933405;29;20032;-49
2023/03/07 10:26:58;;;;;;;8.75;5.97;;;20.50;99.90;;;;;;4934712;29;20050;-49
2023/03/07 10:29:31;;;;;;;7.97;6.10;;;20.50;99.90;;;;;;4933644;29;20043;-49
2023/03/07 10:32:18;;;;;;;15.23;6.35;;;20.50;99.90;;;;;;4934632;29;20106;-49
2023/03/07 10:34:45;;;;;;;9.85;5.65;;;20.50;99.90;;;;;;4934656;29;20407;-49
2023/03/07 10:37:11;;;;;;;;;;;20.40;99.90;;;;;;4935085;29;20063;-49
2023/03/07 10:39:43;;;;;;;8.68;4.97;;;20.50;99.90;;;;;;4934621;29;19960;-49
2023/03/07 10:42:12;;;;;;;9.07;5.18;;;20.50;99.90;;;;;;4934511;29;20086;-49
2023/03/07 10:44:38;;;;;;;7.53;5.32;;;20.50;99.90;;;;;;4933372;29;20388;-49
2023/03/07 10:47:04;;;;;;;9.52;5.35;;;20.50;99.90;;;;;;4934639;29;20404;-49
2023/03/07 10:49:44;;;;;;;9.43;5.50;;;20.40;99.90;;;;;;4934646;29;20083;-48
2023/03/07 10:52:31;;;;;;;7.80;5.07;;;20.50;99.90;;;;;;4937027;29;20099;-49
2023/03/07 10:55:28;;;;;;;8.02;5.00;;;20.50;99.90;;;;;;4938201;29;20432;-49
2023/03/07 10:57:54;;;;;;;9.88;5.63;;;20.50;99.90;;;;;;4938060;29;20028;-48
2023/03/07 11:00:20;;;;;;;11.55;5.25;;;20.50;99.90;;;;;;4938139;29;20086;-49
2023/03/07 11:02:46;;;;;;;9.05;5.57;;;20.50;99.90;;;;;;4937967;29;20039;-49
2023/03/07 11:05:30;;;;;;;7.53;5.38;;;20.50;99.90;;;;;;4937986;29;20086;-49
2023/03/07 11:07:56;;;;;;;10.25;5.90;;;20.50;99.90;;;;;;4938020;29;20027;-49
2023/03/07 11:10:34;;;;;;;6.55;4.82;;;20.50;99.90;;;;;;4936851;29;20024;-49
2023/03/07 11:13:16;;;;;;;7.68;5.75;;;20.40;99.90;;;;;;4937984;29;20547;-49
2023/03/07 11:15:45;;;;;;;7.32;5.07;;;20.50;99.90;;;;;;4937628;29;20555;-49
2023/03/07 11:18:29;;;;;;;7.95;5.15;;;20.50;99.90;;;;;;4937847;29;20031;-49
2023/03/07 11:20:56;;;;;;;9.27;5.05;;;20.50;99.90;;;;;;4937478;28;20027;-48
2023/03/07 11:23:28;;;;;;;7.93;5.40;;;20.50;99.90;;;;;;4936344;29;20039;-49
2023/03/07 11:25:56;;;;;;;9.85;5.10;;;20.50;99.90;;;;;;4937506;29;20035;-49
2023/03/07 11:28:33;;;;;;;9.27;5.70;;;20.50;99.90;;;;;;4954407;29;20526;-49
2023/03/07 11:31:21;;;;;;;11.20;5.32;;;20.50;99.90;;;;;;4953726;29;20039;-49
2023/03/07 11:33:55;;;;;;;7.72;4.65;;;20.50;99.90;;;;;;4968496;28;20027;-50
2023/03/07 11:36:31;;;;;;;8.65;4.72;;;20.50;99.90;;;;;;4952860;29;20026;-50
2023/03/07 11:39:19;;;;;;;8.18;4.60;;;20.50;99.90;;;;;;4955589;28;20431;-49
2023/03/07 11:42:02;;;;;;;8.55;5.35;;;20.60;99.90;;;;;;4932191;28;20051;-49
2023/03/07 11:44:47;;;;;;;11.60;5.47;;;20.60;99.90;;;;;;4946984;28;20094;-47
2023/03/07 11:47:36;;;;;;;8.52;5.15;;;20.60;99.90;;;;;;4948210;29;20051;-47
2023/03/07 11:50:25;;;;;;;8.30;5.13;;;20.70;99.90;;;;;;4944640;29;20039;-50
2023/03/07 11:52:57;;;;;;;10.13;4.93;;;20.70;99.90;;;;;;4936838;29;20024;-50
2023/03/07 11:55:28;;;;;;;11.95;5.32;;;20.80;99.90;;;;;;4947034;29;20015;-49
2023/03/07 11:58:30;;;;;;;8.73;5.40;;;20.90;99.90;;;;;;4936172;29;20039;-49
2023/03/07 12:01:30;;;;;;;8.25;4.93;;;20.90;99.90;;;;;;4948739;29;20054;-48
2023/03/07 12:04:27;;;;;;;10.45;5.82;;;21.00;99.90;;;;;;4935453;28;20089;-51
2023/03/07 12:07:30;;;;;;;9.00;5.45;;;21.00;99.90;;;;;;4958640;28;20547;-48
2023/03/07 12:10:25;;;;;;;12.27;6.55;;;21.10;99.90;;;;;;4946899;29;20027;-49
2023/03/07 12:13:23;;;;;;;13.88;7.25;;;21.10;99.90;;;;;;4943929;29;20126;-49
2023/03/07 12:16:04;;;;;;;13.85;7.45;;;21.20;99.90;;;;;;4951094;28;20043;-49
2023/03/07 12:18:56;;;;;;;14.02;7.72;;;21.20;99.90;;;;;;4952653;28;20416;-48
2023/03/07 12:21:34;;;;;;;13.25;7.75;;;21.30;99.90;;;;;;4951072;28;20439;-49
2023/03/07 12:24:12;;;;;;;13.00;8.00;;;21.40;99.90;;;;;;4952260;28;20114;-49
2023/03/07 12:27:09;;;;;;;16.35;9.20;;;21.40;99.90;;;;;;4951793;28;20353;-51
2023/03/07 12:29:41;;;;;;;20.23;7.47;;;21.40;99.90;;;;;;4935917;29;20027;-49
2023/03/07 12:32:14;;;;;;;15.20;7.90;;;21.50;99.90;;;;;;4938642;29;20090;-49
2023/03/07 12:34:46;;;;;;;17.88;8.18;;;21.50;99.90;;;;;;4935786;29;20146;-48
2023/03/07 12:37:14;;;;;;;20.75;9.40;;;21.50;99.90;;;;;;4952022;29;20031;-49
2023/03/07 12:40:01;;;;;;;17.02;8.60;;;21.50;99.90;;;;;;4951182;28;20019;-49
2023/03/07 12:42:45;;;;;;;20.80;8.10;;;21.60;99.90;;;;;;4940378;29;20040;-49
2023/03/07 12:45:20;;;;;;;18.95;7.85;;;21.60;99.90;;;;;;4935380;29;20289;-48
2023/03/07 12:47:59;;;;;;;17.65;8.90;;;21.60;99.90;;;;;;4947539;29;20499;-49
2023/03/07 12:50:40;;;;;;;21.02;8.55;;;21.70;99.90;;;;;;4950955;29;20034;-48
2023/03/07 12:53:30;;;;;;;19.85;9.10;;;21.60;99.90;;;;;;4939008;28;20026;-48
2023/03/07 12:56:10;;;;;;;14.23;8.57;;;21.70;99.90;;;;;;4935520;29;20035;-48
2023/03/07 12:58:54;;;;;;;16.40;9.05;;;21.70;99.90;;;;;;4935071;29;20023;-48
2023/03/07 13:01:27;;;;;;;19.50;9.07;;;21.70;99.90;;;;;;4936104;29;20023;-48